Time;durP1;ratioP1;P1;durP2;ratioP2;P2;SDS_P1;SDS_P2;PMS_P1;PMS_P2;Temp;Humidity;BMP_temperature;BMP_pressure;BME280_temperature;BME280_humidity;BME280_pressure;Samples;Min_cycle;Max_cycle;Signal;HPM_P1;HPM_P2
2021/03/30 00:00:48;;;;;;;32.23;24.33;;;;;;;;;;5073776;28;20555;-83
2021/03/30 00:03:14;;;;;;;31.70;22.87;;;;;;;;;;5073801;28;20258;-83
2021/03/30 00:05:40;;;;;;;32.13;21.97;;;;;;;;;;5074038;28;20276;-83
2021/03/30 00:08:05;;;;;;;31.10;22.27;;;;;;;;;;5073615;28;20219;-83
2021/03/30 00:10:35;;;;;;;33.03;22.40;;;;;;;;;;5073749;28;20170;-83
2021/03/30 00:13:00;;;;;;;32.50;23.93;;;;;;;;;;5073918;28;20171;-83
2021/03/30 00:15:25;;;;;;;35.83;23.53;;;;;;;;;;5073888;28;20189;-83
2021/03/30 00:17:50;;;;;;;32.93;24.73;;;;;;;;;;5074253;28;20515;-83
2021/03/30 00:20:16;;;;;;;37.40;24.07;;;;;;;;;;5073532;28;20198;-83
2021/03/30 00:22:42;;;;;;;33.87;23.50;;;;;;;;;;5073526;28;20170;-83
2021/03/30 00:25:08;;;;;;;33.40;24.20;;;;;;;;;;5073581;28;20273;-83
2021/03/30 00:27:33;;;;;;;34.50;25.03;;;;;;;;;;5073784;28;20517;-83
2021/03/30 00:29:59;;;;;;;33.07;23.80;;;;;;;;;;5073492;28;20171;-83
2021/03/30 00:32:24;;;;;;;34.67;24.83;;;;;;;;;;5073216;28;20224;-83
2021/03/30 00:34:50;;;;;;;34.37;25.00;;;;;;;;;;5073641;28;20171;-83
2021/03/30 00:37:15;;;;;;;35.73;24.70;;;;;;;;;;5073263;28;20620;-82
2021/03/30 00:39:41;;;;;;;39.00;24.33;;;;;;;;;;5073379;28;20164;-82
2021/03/30 00:42:06;;;;;;;35.47;24.87;;;;;;;;;;5073182;28;20171;-82
2021/03/30 00:44:32;;;;;;;36.97;25.37;;;;;;;;;;5074157;28;20170;-82
2021/03/30 00:46:59;;;;;;;36.23;25.97;;;;;;;;;;5077810;28;20250;-82
2021/03/30 00:49:24;;;;;;;35.43;25.47;;;;;;;;;;5077205;28;20226;-82
2021/03/30 00:51:49;;;;;;;36.57;26.10;;;;;;;;;;5077513;28;20610;-82
2021/03/30 00:54:15;;;;;;;35.27;26.77;;;;;;;;;;5076923;28;20614;-82
2021/03/30 00:56:44;;;;;;;36.17;25.07;;;;;;;;;;5077530;28;20242;-82
2021/03/30 00:59:10;;;;;;;34.20;24.73;;;;;;;;;;5077616;28;20224;-82
2021/03/30 01:01:35;;;;;;;38.93;26.20;;;;;;;;;;5077161;28;20594;-82
2021/03/30 01:04:01;;;;;;;37.73;26.40;;;;;;;;;;5076979;28;20168;-83
2021/03/30 01:06:26;;;;;;;38.90;26.60;;;;;;;;;;5076514;28;20572;-83
2021/03/30 01:08:55;;;;;;;38.77;27.30;;;;;;;;;;5076856;28;20195;-83
2021/03/30 01:11:35;;;;;;;38.73;26.77;;;;;;;;;;5076795;28;20167;-83
2021/03/30 01:14:08;;;;;;;40.60;27.20;;;;;;;;;;5075118;28;20328;-83
2021/03/30 01:16:38;;;;;;;36.17;26.80;;;;;;;;;;5077360;28;20167;-83
2021/03/30 01:19:15;;;;;;;37.70;26.57;;;;;;;;;;5076710;28;20262;-83
2021/03/30 01:21:43;;;;;;;36.10;26.43;;;;;;;;;;5076920;28;20502;-83
2021/03/30 01:24:30;;;;;;;39.40;27.10;;;;;;;;;;5076879;28;20167;-83
2021/03/30 01:27:02;;;;;;;39.57;27.03;;;;;;;;;;5076778;28;20642;-83
2021/03/30 01:29:40;;;;;;;36.67;25.60;;;;;;;;;;5076423;28;20234;-83
2021/03/30 01:32:11;;;;;;;36.83;25.57;;;;;;;;;;5077318;28;20238;-83
2021/03/30 01:34:38;;;;;;;35.00;26.13;;;;;;;;;;5076169;28;20151;-83
2021/03/30 01:37:04;;;;;;;40.60;27.03;;;;;;;;;;5076072;28;20521;-83
2021/03/30 01:39:30;;;;;;;39.90;25.87;;;;;;;;;;5076047;28;20176;-83
2021/03/30 01:41:55;;;;;;;39.33;27.43;;;;;;;;;;5076652;28;20179;-83
2021/03/30 01:44:22;;;;;;;36.47;26.23;;;;;;;;;;5075755;28;20175;-83
2021/03/30 01:46:49;;;;;;;38.17;26.87;;;;;;;;;;5076206;28;20197;-83
2021/03/30 01:49:14;;;;;;;38.00;26.70;;;;;;;;;;5076228;28;20209;-83
2021/03/30 01:51:40;;;;;;;37.67;27.17;;;;;;;;;;5076226;28;20163;-83
2021/03/30 01:54:06;;;;;;;39.40;26.27;;;;;;;;;;5075803;28;20193;-83
2021/03/30 01:56:32;;;;;;;36.40;26.30;;;;;;;;;;5075060;28;20251;-83
2021/03/30 01:58:58;;;;;;;42.80;28.70;;;;;;;;;;5075582;28;20532;-84
2021/03/30 02:01:25;;;;;;;40.27;27.27;;;;;;;;;;5075999;28;20175;-84
2021/03/30 02:03:51;;;;;;;38.73;26.47;;;;;;;;;;5076456;28;20180;-83
2021/03/30 02:06:16;;;;;;;37.10;25.90;;;;;;;;;;5075981;28;20171;-83
2021/03/30 02:08:42;;;;;;;38.03;25.37;;;;;;;;;;5076146;28;20234;-83
2021/03/30 02:11:08;;;;;;;38.83;26.17;;;;;;;;;;5075034;28;20293;-82
2021/03/30 02:13:41;;;;;;;35.40;24.97;;;;;;;;;;5076026;28;20175;-82
2021/03/30 02:16:19;;;;;;;36.33;25.33;;;;;;;;;;5075758;28;20656;-82
2021/03/30 02:18:47;;;;;;;36.23;25.67;;;;;;;;;;5075674;28;20257;-82
2021/03/30 02:21:17;;;;;;;41.23;26.47;;;;;;;;;;5075283;28;20626;-82
2021/03/30 02:23:43;;;;;;;35.63;24.37;;;;;;;;;;5075632;28;20167;-82
2021/03/30 02:26:09;;;;;;;35.77;25.23;;;;;;;;;;5075844;28;20194;-82
2021/03/30 02:28:45;;;;;;;33.20;23.83;;;;;;;;;;5075379;28;20214;-82
2021/03/30 02:31:13;;;;;;;33.67;24.60;;;;;;;;;;5076174;28;20216;-82
2021/03/30 02:33:39;;;;;;;36.13;23.87;;;;;;;;;;5075276;28;20183;-82
2021/03/30 02:36:05;;;;;;;34.67;23.77;;;;;;;;;;5074247;28;20179;-82
2021/03/30 02:38:32;;;;;;;36.33;24.93;;;;;;;;;;5075352;28;20179;-82
2021/03/30 02:40:57;;;;;;;35.73;25.57;;;;;;;;;;5075507;28;20599;-82
2021/03/30 02:43:23;;;;;;;34.83;24.53;;;;;;;;;;5074986;28;20194;-82
2021/03/30 02:45:51;;;;;;;35.70;24.57;;;;;;;;;;5075327;28;20227;-82
2021/03/30 02:48:17;;;;;;;38.67;26.07;;;;;;;;;;5074641;28;20203;-82
2021/03/30 02:50:42;;;;;;;38.43;26.20;;;;;;;;;;5075335;28;20175;-82
2021/03/30 02:53:08;;;;;;;41.87;26.23;;;;;;;;;;5075195;28;20171;-82
2021/03/30 02:55:33;;;;;;;42.83;30.40;;;;;;;;;;5074583;28;20256;-83
2021/03/30 02:57:59;;;;;;;45.20;28.67;;;;;;;;;;5074519;28;20191;-83
2021/03/30 03:00:25;;;;;;;46.67;29.47;;;;;;;;;;5074465;28;20171;-83
2021/03/30 03:02:51;;;;;;;48.83;30.27;;;;;;;;;;5074728;28;20175;-83
2021/03/30 03:05:16;;;;;;;40.83;28.27;;;;;;;;;;5074619;28;20175;-83
2021/03/30 03:07:42;;;;;;;42.23;28.87;;;;;;;;;;5073975;28;20326;-82
2021/03/30 03:10:08;;;;;;;47.30;30.10;;;;;;;;;;5073802;28;20171;-82
2021/03/30 03:12:36;;;;;;;42.90;29.13;;;;;;;;;;5074880;28;20174;-83
2021/03/30 03:15:02;;;;;;;40.43;28.13;;;;;;;;;;5074509;28;20216;-83
2021/03/30 03:17:28;;;;;;;39.63;28.17;;;;;;;;;;5074672;28;20167;-83
2021/03/30 03:19:54;;;;;;;41.33;28.70;;;;;;;;;;5074513;28;20170;-83
2021/03/30 03:22:19;;;;;;;46.57;28.90;;;;;;;;;;5074114;28;20577;-83
2021/03/30 03:24:49;;;;;;;43.93;29.10;;;;;;;;;;5074071;28;20167;-83
2021/03/30 03:27:14;;;;;;;41.87;28.33;;;;;;;;;;5073997;28;20565;-83
2021/03/30 03:29:40;;;;;;;46.57;29.07;;;;;;;;;;5074177;28;20218;-83
2021/03/30 03:32:05;;;;;;;43.83;28.37;;;;;;;;;;5074178;28;20198;-83
2021/03/30 03:34:31;;;;;;;50.80;34.90;;;;;;;;;;5072997;28;20228;-82
2021/03/30 03:36:59;;;;;;;49.27;34.20;;;;;;;;;;5074262;28;20175;-82
2021/03/30 03:39:24;;;;;;;50.00;35.30;;;;;;;;;;5074441;28;20228;-82
2021/03/30 03:41:49;;;;;;;44.80;33.53;;;;;;;;;;5074398;28;20163;-82
2021/03/30 03:44:15;;;;;;;46.50;33.20;;;;;;;;;;5073791;28;20521;-82
2021/03/30 03:46:41;;;;;;;45.60;31.33;;;;;;;;;;5074034;28;20670;-82
2021/03/30 03:49:07;;;;;;;44.73;30.97;;;;;;;;;;5073923;28;20222;-82
2021/03/30 03:51:37;;;;;;;54.33;33.67;;;;;;;;;;5073497;28;20203;-82
2021/03/30 03:54:05;;;;;;;43.77;32.43;;;;;;;;;;5074510;28;20163;-82
2021/03/30 03:56:33;;;;;;;47.67;33.70;;;;;;;;;;5074046;28;20175;-82
2021/03/30 03:59:07;;;;;;;45.53;32.47;;;;;;;;;;5073882;28;20167;-82
2021/03/30 04:01:39;;;;;;;44.07;31.03;;;;;;;;;;5073901;28;20601;-83
2021/03/30 04:04:06;;;;;;;49.73;34.63;;;;;;;;;;5073537;28;20525;-83
2021/03/30 04:06:39;;;;;;;50.67;36.77;;;;;;;;;;5073619;28;20249;-82
2021/03/30 04:09:06;;;;;;;46.67;34.40;;;;;;;;;;5073746;28;20198;-82
2021/03/30 04:11:32;;;;;;;47.33;31.77;;;;;;;;;;5073364;28;20225;-83
2021/03/30 04:13:58;;;;;;;43.07;29.13;;;;;;;;;;5072486;28;20171;-83
2021/03/30 04:16:24;;;;;;;40.93;28.97;;;;;;;;;;5073668;28;20221;-83
2021/03/30 04:18:49;;;;;;;41.03;30.03;;;;;;;;;;5073483;28;20714;-83
2021/03/30 04:21:19;;;;;;;40.97;29.20;;;;;;;;;;5073361;28;20171;-83
2021/03/30 04:23:46;;;;;;;48.17;31.80;;;;;;;;;;5073893;28;20167;-83
2021/03/30 04:26:11;;;;;;;42.73;30.67;;;;;;;;;;5073654;28;20212;-83
2021/03/30 04:28:37;;;;;;;42.60;30.43;;;;;;;;;;5073498;28;20282;-83
2021/03/30 04:31:02;;;;;;;36.83;27.43;;;;;;;;;;5074065;28;20172;-83
2021/03/30 04:33:28;;;;;;;40.57;28.57;;;;;;;;;;5073481;28;20175;-83
2021/03/30 04:35:53;;;;;;;47.00;29.87;;;;;;;;;;5072228;28;20182;-83
2021/03/30 04:38:18;;;;;;;46.03;30.87;;;;;;;;;;5073199;28;20171;-83
2021/03/30 04:40:50;;;;;;;46.17;31.10;;;;;;;;;;5073218;28;20163;-82
2021/03/30 04:43:15;;;;;;;48.40;32.90;;;;;;;;;;5073862;28;20155;-83
2021/03/30 04:45:40;;;;;;;58.00;37.40;;;;;;;;;;5073175;28;20164;-83
2021/03/30 04:48:06;;;;;;;56.20;37.47;;;;;;;;;;5073193;28;20219;-82
2021/03/30 04:50:31;;;;;;;63.17;38.50;;;;;;;;;;5074456;28;20240;-83
2021/03/30 04:52:57;;;;;;;61.30;38.23;;;;;;;;;;5073242;28;20167;-83
2021/03/30 04:55:22;;;;;;;56.77;37.13;;;;;;;;;;5073427;28;20173;-82
2021/03/30 04:57:47;;;;;;;58.20;38.27;;;;;;;;;;5073074;28;20264;-83
2021/03/30 05:00:15;;;;;;;55.80;36.60;;;;;;;;;;5073419;28;20557;-83
2021/03/30 05:02:40;;;;;;;54.60;36.07;;;;;;;;;;5073418;28;20602;-83
2021/03/30 05:05:06;;;;;;;55.50;36.50;;;;;;;;;;5073390;28;20172;-83
2021/03/30 05:07:31;;;;;;;61.77;37.27;;;;;;;;;;5073381;28;20310;-83
2021/03/30 05:09:56;;;;;;;56.50;37.20;;;;;;;;;;5073256;28;20182;-83
2021/03/30 05:12:22;;;;;;;52.43;34.90;;;;;;;;;;5073276;28;20172;-83
2021/03/30 05:14:47;;;;;;;55.87;37.63;;;;;;;;;;5073595;28;20182;-83
2021/03/30 05:17:12;;;;;;;56.77;36.47;;;;;;;;;;5073066;28;20171;-83
2021/03/30 05:19:39;;;;;;;58.97;34.63;;;;;;;;;;5073292;28;20171;-83
2021/03/30 05:22:04;;;;;;;60.70;39.17;;;;;;;;;;5072876;28;20250;-83
2021/03/30 05:24:30;;;;;;;58.10;41.83;;;;;;;;;;5073481;28;20197;-82
2021/03/30 05:26:55;;;;;;;63.07;43.57;;;;;;;;;;5073190;28;20167;-83
2021/03/30 05:29:20;;;;;;;58.20;43.43;;;;;;;;;;5073397;28;20200;-83
2021/03/30 05:31:46;;;;;;;62.53;45.83;;;;;;;;;;5073903;28;20179;-83
2021/03/30 05:34:11;;;;;;;56.43;40.30;;;;;;;;;;5076460;28;20171;-83
2021/03/30 05:36:36;;;;;;;57.43;43.83;;;;;;;;;;5076419;28;20266;-82
2021/03/30 05:39:02;;;;;;;114.70;83.37;;;;;;;;;;5076375;28;20671;-83
2021/03/30 05:41:27;;;;;;;168.20;115.27;;;;;;;;;;5075903;28;20265;-83
2021/03/30 05:43:53;;;;;;;72.83;49.77;;;;;;;;;;5076495;28;20167;-83
2021/03/30 05:46:18;;;;;;;54.37;38.83;;;;;;;;;;5076452;28;20167;-83
2021/03/30 05:48:46;;;;;;;51.17;35.90;;;;;;;;;;5076410;28;20195;-83
2021/03/30 05:51:12;;;;;;;47.03;33.13;;;;;;;;;;5076577;28;20179;-82
2021/03/30 05:53:38;;;;;;;49.40;35.47;;;;;;;;;;5076819;28;20593;-82
2021/03/30 05:56:05;;;;;;;48.67;32.60;;;;;;;;;;5076782;28;20171;-82
2021/03/30 05:58:31;;;;;;;42.20;31.93;;;;;;;;;;5076627;28;20622;-82
2021/03/30 06:01:00;;;;;;;50.27;36.50;;;;;;;;;;5055757;28;20278;-81
2021/03/30 06:03:29;;;;;;;46.43;33.67;;;;;;;;;;5055681;28;20669;-81
2021/03/30 06:05:57;;;;;;;48.13;33.67;;;;;;;;;;5052609;28;20191;-81
2021/03/30 06:08:23;;;;;;;44.70;31.90;;;;;;;;;;5044274;28;20269;-81
2021/03/30 06:10:51;;;;;;;39.97;30.97;;;;;;;;;;5035953;28;20173;-81
2021/03/30 06:13:36;;;;;;;44.63;32.83;;;;;;;;;;5036126;28;20499;-82
2021/03/30 06:16:20;;;;;;;46.37;34.00;;;;;;;;;;5035642;28;20180;-81
2021/03/30 06:18:45;;;;;;;39.60;31.43;;;;;;;;;;5048876;28;20172;-82
2021/03/30 06:21:14;;;;;;;40.90;31.30;;;;;;;;;;5055775;28;20170;-82
2021/03/30 06:23:39;;;;;;;42.33;31.43;;;;;;;;;;5054557;28;20600;-81
2021/03/30 06:26:14;;;;;;;41.27;31.23;;;;;;;;;;5055641;28;20206;-81
2021/03/30 06:28:40;;;;;;;43.10;33.77;;;;;;;;;;5055295;28;20294;-81
2021/03/30 06:31:10;;;;;;;44.20;33.20;;;;;;;;;;5055178;28;20290;-81
2021/03/30 06:33:53;;;;;;;44.77;31.97;;;;;;;;;;5055318;28;20225;-82
2021/03/30 06:36:20;;;;;;;40.90;32.43;;;;;;;;;;5055398;28;20156;-81
2021/03/30 06:38:46;;;;;;;43.80;31.57;;;;;;;;;;5055328;28;20171;-81
2021/03/30 06:44:26;;;;;;;42.80;31.97;;;;;;;;;;5055165;28;20218;-82
2021/03/30 06:46:58;;;;;;;42.47;33.37;;;;;;;;;;5055140;28;20176;-81
2021/03/30 06:49:25;;;;;;;45.43;33.67;;;;;;;;;;5054759;28;20214;-82
2021/03/30 06:51:51;;;;;;;46.23;37.97;;;;;;;;;;5045742;28;20177;-82
2021/03/30 06:54:16;;;;;;;52.27;38.00;;;;;;;;;;5045013;28;20264;-82
2021/03/30 06:56:48;;;;;;;47.80;36.80;;;;;;;;;;5052002;28;20176;-81
2021/03/30 06:59:14;;;;;;;41.30;31.60;;;;;;;;;;5053356;28;20274;-82
2021/03/30 07:01:39;;;;;;;47.23;34.40;;;;;;;;;;5054648;28;20203;-81
2021/03/30 07:04:05;;;;;;;46.43;35.87;;;;;;;;;;5054297;28;20549;-81
2021/03/30 07:06:31;;;;;;;40.00;32.87;;;;;;;;;;5054645;28;20171;-82
2021/03/30 07:08:56;;;;;;;39.17;29.30;;;;;;;;;;5048650;28;20570;-81
2021/03/30 07:11:22;;;;;;;39.40;30.40;;;;;;;;;;5044164;28;20626;-82
2021/03/30 07:13:47;;;;;;;38.23;29.97;;;;;;;;;;5044377;28;20176;-82
2021/03/30 07:16:19;;;;;;;36.87;29.80;;;;;;;;;;5054557;28;20168;-82
2021/03/30 07:18:45;;;;;;;37.07;29.10;;;;;;;;;;5054814;28;20250;-81
2021/03/30 07:21:10;;;;;;;37.97;30.47;;;;;;;;;;5051878;28;20172;-81
2021/03/30 07:23:37;;;;;;;44.60;32.83;;;;;;;;;;5047756;28;20638;-81
2021/03/30 07:26:02;;;;;;;42.53;32.87;;;;;;;;;;5040026;28;20700;-81
2021/03/30 07:28:28;;;;;;;38.07;29.93;;;;;;;;;;5044038;28;20200;-81
2021/03/30 07:30:55;;;;;;;37.83;28.63;;;;;;;;;;5051167;28;20176;-82
2021/03/30 07:33:20;;;;;;;40.27;32.13;;;;;;;;;;5045384;28;20178;-82
2021/03/30 07:35:46;;;;;;;35.97;28.97;;;;;;;;;;5042530;28;20173;-81
2021/03/30 07:38:13;;;;;;;35.87;28.13;;;;;;;;;;5043726;28;20570;-82
2021/03/30 07:40:40;;;;;;;37.13;28.80;;;;;;;;;;5044190;28;20176;-81
2021/03/30 07:43:07;;;;;;;38.43;28.27;;;;;;;;;;5042802;28;20258;-81
2021/03/30 07:45:34;;;;;;;37.80;29.43;;;;;;;;;;5042071;28;20207;-82
2021/03/30 07:47:59;;;;;;;37.07;28.50;;;;;;;;;;5042732;28;20273;-82
2021/03/30 07:50:45;;;;;;;40.50;31.73;;;;;;;;;;5039506;28;20627;-82
2021/03/30 07:53:30;;;;;;;37.27;29.50;;;;;;;;;;5034095;28;20176;-82
2021/03/30 07:55:55;;;;;;;39.00;30.23;;;;;;;;;;5032786;28;20642;-82
2021/03/30 07:58:34;;;;;;;35.33;27.73;;;;;;;;;;5032289;28;20192;-82
2021/03/30 08:01:00;;;;;;;35.00;27.33;;;;;;;;;;5031734;28;20634;-82
2021/03/30 08:03:27;;;;;;;32.67;26.13;;;;;;;;;;5033966;28;20196;-81
2021/03/30 08:06:07;;;;;;;38.73;27.63;;;;;;;;;;5033971;28;20176;-82
2021/03/30 08:08:44;;;;;;;35.77;28.43;;;;;;;;;;5033907;28;20220;-82
2021/03/30 08:11:10;;;;;;;35.60;28.43;;;;;;;;;;5036801;28;20270;-81
2021/03/30 08:13:36;;;;;;;36.00;28.00;;;;;;;;;;5053330;28;20207;-82
2021/03/30 08:16:09;;;;;;;35.53;27.00;;;;;;;;;;5052989;28;20563;-82
2021/03/30 08:18:39;;;;;;;33.53;26.63;;;;;;;;;;5052428;28;20184;-82
2021/03/30 08:21:08;;;;;;;31.90;26.23;;;;;;;;;;5052225;28;20193;-82
2021/03/30 08:23:52;;;;;;;33.50;26.63;;;;;;;;;;5052930;28;20195;-82
2021/03/30 08:26:29;;;;;;;39.13;31.73;;;;;;;;;;5059248;28;20525;-82
2021/03/30 08:29:01;;;;;;;37.27;29.77;;;;;;;;;;5073360;28;20541;-82
2021/03/30 08:31:28;;;;;;;36.97;28.63;;;;;;;;;;5054004;28;20176;-82
2021/03/30 08:33:54;;;;;;;34.57;26.43;;;;;;;;;;5050826;28;20179;-82
2021/03/30 08:36:21;;;;;;;37.23;26.77;;;;;;;;;;5053552;28;20174;-82
2021/03/30 08:38:50;;;;;;;38.83;27.70;;;;;;;;;;5053724;28;20184;-82
2021/03/30 08:41:34;;;;;;;35.47;28.33;;;;;;;;;;5053234;28;20262;-82
2021/03/30 08:44:18;;;;;;;32.80;25.90;;;;;;;;;;5053519;28;20194;-82
2021/03/30 08:46:45;;;;;;;29.67;23.70;;;;;;;;;;5052869;28;20614;-82
2021/03/30 08:49:28;;;;;;;32.83;24.57;;;;;;;;;;5053406;28;20204;-82
2021/03/30 08:51:58;;;;;;;31.47;24.00;;;;;;;;;;5053338;28;20266;-82
2021/03/30 08:54:25;;;;;;;29.00;23.87;;;;;;;;;;5051833;28;20179;-82
2021/03/30 08:56:51;;;;;;;32.60;24.40;;;;;;;;;;5053450;28;20176;-82
2021/03/30 08:59:18;;;;;;;31.97;24.23;;;;;;;;;;5054629;28;20619;-83
2021/03/30 09:01:44;;;;;;;29.50;23.50;;;;;;;;;;5049465;28;20180;-82
2021/03/30 09:04:10;;;;;;;28.73;23.67;;;;;;;;;;5061244;28;20182;-83
2021/03/30 09:06:41;;;;;;;28.73;22.20;;;;;;;;;;5070554;28;20602;-82
2021/03/30 09:09:20;;;;;;;32.47;23.67;;;;;;;;;;5056655;28;20265;-82
2021/03/30 09:11:45;;;;;;;29.23;23.37;;;;;;;;;;5054065;28;20194;-82
2021/03/30 09:14:15;;;;;;;27.77;23.07;;;;;;;;;;5055333;28;20262;-82
2021/03/30 09:16:40;;;;;;;26.80;22.43;;;;;;;;;;5056493;28;20182;-82
2021/03/30 09:19:35;;;;;;;26.43;22.73;;;;;;;;;;5056473;28;20168;-82
2021/03/30 09:22:02;;;;;;;27.17;22.07;;;;;;;;;;5051542;28;20583;-82
2021/03/30 09:27:01;;;;;;;24.60;21.30;;;;;;;;;;5056385;28;20172;-82
2021/03/30 09:29:37;;;;;;;26.53;21.13;;;;;;;;;;5056518;28;20270;-82
2021/03/30 09:32:04;;;;;;;28.63;21.43;;;;;;;;;;5054418;28;20536;-82
2021/03/30 09:34:29;;;;;;;25.47;21.57;;;;;;;;;;5056326;28;20657;-82
2021/03/30 09:36:56;;;;;;;25.27;21.30;;;;;;;;;;5056128;28;20206;-82
2021/03/30 09:39:23;;;;;;;23.03;20.53;;;;;;;;;;5056277;28;20299;-81
2021/03/30 09:41:49;;;;;;;24.50;21.07;;;;;;;;;;5056142;28;20607;-81
2021/03/30 09:44:16;;;;;;;24.87;20.93;;;;;;;;;;5056393;28;20623;-82
2021/03/30 09:46:42;;;;;;;23.83;20.87;;;;;;;;;;5056342;28;20175;-82
2021/03/30 09:49:08;;;;;;;23.27;20.57;;;;;;;;;;5056348;28;20536;-82
2021/03/30 09:51:36;;;;;;;25.47;20.87;;;;;;;;;;5055944;28;20172;-82
2021/03/30 09:54:16;;;;;;;22.40;20.10;;;;;;;;;;5056282;28;20622;-82
2021/03/30 09:56:41;;;;;;;26.20;21.50;;;;;;;;;;5056261;28;20619;-82
2021/03/30 09:59:08;;;;;;;22.17;19.53;;;;;;;;;;5055751;28;20329;-82
2021/03/30 10:01:34;;;;;;;26.37;21.00;;;;;;;;;;5055735;28;20175;-82
2021/03/30 10:03:59;;;;;;;22.65;18.85;;;;;;;;;;5056140;28;20172;-81
2021/03/30 10:06:28;;;;;;;26.07;20.53;;;;;;;;;;5055024;28;20176;-82
2021/03/30 10:09:02;;;;;;;23.05;18.80;;;;;;;;;;5053398;28;20210;-82
2021/03/30 10:11:29;;;;;;;29.53;21.50;;;;;;;;;;5052204;28;20171;-82
2021/03/30 10:13:54;;;;;;;25.00;19.23;;;;;;;;;;5052869;28;20564;-83
2021/03/30 10:16:19;;;;;;;24.43;18.63;;;;;;;;;;5048620;28;20160;-82
2021/03/30 10:18:45;;;;;;;30.17;24.87;;;;;;;;;;5053124;28;20168;-82
2021/03/30 10:21:18;;;;;;;24.67;21.03;;;;;;;;;;5053876;28;20176;-83
2021/03/30 10:23:47;;;;;;;22.20;18.45;;;;;;;;;;5048371;28;20179;-83
2021/03/30 10:26:22;;;;;;;21.20;18.97;;;;;;;;;;5053709;28;20160;-83
2021/03/30 10:28:52;;;;;;;21.13;18.37;;;;;;;;;;5049265;28;20206;-83
2021/03/30 10:31:35;;;;;;;22.73;18.25;;;;;;;;;;5052522;28;20234;-83
2021/03/30 10:34:00;;;;;;;23.30;18.75;;;;;;;;;;5042381;28;20163;-83
2021/03/30 10:36:26;;;;;;;21.23;18.65;;;;;;;;;;5048168;28;20246;-83
2021/03/30 10:39:08;;;;;;;21.65;18.40;;;;;;;;;;5047682;28;20176;-83
2021/03/30 10:41:35;;;;;;;21.88;18.75;;;;;;;;;;5035620;28;20183;-83
2021/03/30 10:44:01;;;;;;;20.88;18.15;;;;;;;;;;5052217;28;20234;-84
2021/03/30 10:46:27;;;;;;;21.10;18.50;;;;;;;;;;5053464;28;20176;-83
2021/03/30 10:49:02;;;;;;;26.75;20.48;;;;;;;;;;5051317;28;20216;-83
2021/03/30 10:51:30;;;;;;;24.50;19.93;;;;;;;;;;5053204;28;20179;-82
2021/03/30 10:53:57;;;;;;;31.70;26.45;;;;;;;;;;5050885;28;20199;-83
2021/03/30 10:56:23;;;;;;;26.53;21.00;;;;;;;;;;5052997;28;20171;-83
2021/03/30 10:58:48;;;;;;;30.55;23.48;;;;;;;;;;5054521;28;20640;-82
2021/03/30 11:01:13;;;;;;;29.38;20.77;;;;;;;;;;5054663;28;20164;-82
2021/03/30 11:03:39;;;;;;;22.13;19.20;;;;;;;;;;5054534;28;20200;-82
2021/03/30 11:06:04;;;;;;;22.80;19.50;;;;;;;;;;5053070;28;20617;-82
2021/03/30 11:08:30;;;;;;;21.35;18.92;;;;;;;;;;5052703;28;20238;-82
2021/03/30 11:10:55;;;;;;;22.25;19.85;;;;;;;;;;5053076;28;20168;-83
2021/03/30 11:13:20;;;;;;;24.67;20.20;;;;;;;;;;5053487;28;20164;-82
2021/03/30 11:15:46;;;;;;;22.33;18.83;;;;;;;;;;5052967;28;20254;-82
2021/03/30 11:18:11;;;;;;;26.17;19.70;;;;;;;;;;5053570;28;20176;-83
2021/03/30 11:20:36;;;;;;;23.37;19.73;;;;;;;;;;5053746;28;20176;-83
2021/03/30 11:23:04;;;;;;;25.67;20.83;;;;;;;;;;5052733;28;20234;-82
2021/03/30 11:25:29;;;;;;;24.07;19.17;;;;;;;;;;5052805;28;20530;-82
2021/03/30 11:27:58;;;;;;;22.13;19.00;;;;;;;;;;5053122;28;20172;-82
2021/03/30 11:30:33;;;;;;;24.43;19.93;;;;;;;;;;5052029;28;20245;-82
2021/03/30 11:33:09;;;;;;;21.13;18.83;;;;;;;;;;5052764;28;20160;-82
2021/03/30 11:36:20;;;;;;;22.23;19.10;;;;;;;;;;5053268;28;20244;-82
2021/03/30 11:38:23;;;;;;;23.17;19.33;;;;;;;;;;5054832;28;20180;-81
2021/03/30 11:40:48;;;;;;;23.47;20.00;;;;;;;;;;5053154;28;20171;-82
2021/03/30 11:43:14;;;;;;;23.63;19.40;;;;;;;;;;5052604;28;20172;-82
2021/03/30 11:45:39;;;;;;;23.47;20.00;;;;;;;;;;5051349;28;20176;-82
2021/03/30 11:48:05;;;;;;;23.40;20.67;;;;;;;;;;5051090;28;20211;-81
2021/03/30 11:50:31;;;;;;;25.90;21.17;;;;;;;;;;5052851;28;20171;-81
2021/03/30 11:52:57;;;;;;;23.83;21.07;;;;;;;;;;5052451;28;20175;-81
2021/03/30 11:55:23;;;;;;;24.47;20.73;;;;;;;;;;5052653;28;20599;-81
2021/03/30 11:57:49;;;;;;;24.63;22.03;;;;;;;;;;5051228;28;20199;-82
2021/03/30 12:00:14;;;;;;;27.13;23.20;;;;;;;;;;5052537;28;20180;-81
2021/03/30 12:02:40;;;;;;;25.70;23.00;;;;;;;;;;5052518;28;20584;-81
2021/03/30 12:05:06;;;;;;;27.80;24.60;;;;;;;;;;5052193;28;20729;-81
2021/03/30 12:07:31;;;;;;;32.93;26.23;;;;;;;;;;5051195;28;20251;-81
2021/03/30 12:09:57;;;;;;;28.47;24.83;;;;;;;;;;5051111;28;20207;-82
2021/03/30 12:12:22;;;;;;;28.57;24.50;;;;;;;;;;5051868;28;20545;-81
2021/03/30 12:14:47;;;;;;;25.63;22.87;;;;;;;;;;5052253;28;20175;-81
2021/03/30 12:17:13;;;;;;;34.50;26.60;;;;;;;;;;5051333;28;20179;-81
2021/03/30 12:19:38;;;;;;;34.10;24.53;;;;;;;;;;5052078;28;20247;-81
2021/03/30 12:22:03;;;;;;;28.00;23.57;;;;;;;;;;5052211;28;20270;-81
2021/03/30 12:24:29;;;;;;;28.60;22.77;;;;;;;;;;5052233;28;20175;-82
2021/03/30 12:26:54;;;;;;;27.33;22.70;;;;;;;;;;5052294;28;20168;-82
2021/03/30 12:29:20;;;;;;;27.90;22.87;;;;;;;;;;5051892;28;20203;-81
2021/03/30 12:31:45;;;;;;;25.80;22.80;;;;;;;;;;5050351;28;20176;-81
2021/03/30 12:34:12;;;;;;;25.70;22.23;;;;;;;;;;5051051;28;20603;-81
2021/03/30 12:36:38;;;;;;;29.13;23.33;;;;;;;;;;5052436;28;20189;-82
2021/03/30 12:39:03;;;;;;;25.23;22.20;;;;;;;;;;5053037;28;20654;-81
2021/03/30 12:41:30;;;;;;;27.43;22.00;;;;;;;;;;5062806;28;20221;-81
2021/03/30 12:43:55;;;;;;;25.43;21.83;;;;;;;;;;5060497;28;20182;-81
2021/03/30 12:46:21;;;;;;;24.60;22.00;;;;;;;;;;5076630;28;20266;-81
2021/03/30 12:48:46;;;;;;;23.10;20.60;;;;;;;;;;5064675;28;20217;-81
2021/03/30 12:51:13;;;;;;;25.20;22.10;;;;;;;;;;5060889;28;20638;-81
2021/03/30 12:53:38;;;;;;;26.67;20.57;;;;;;;;;;5054900;28;20183;-81
2021/03/30 12:56:04;;;;;;;23.40;20.40;;;;;;;;;;5055470;28;20264;-82
2021/03/30 12:58:29;;;;;;;23.70;20.83;;;;;;;;;;5069517;28;20283;-82
2021/03/30 13:00:54;;;;;;;22.50;20.07;;;;;;;;;;5075607;28;20295;-81
2021/03/30 13:03:20;;;;;;;24.77;18.43;;;;;;;;;;5075683;28;20163;-81
2021/03/30 13:05:45;;;;;;;19.07;16.73;;;;;;;;;;5075964;28;20175;-82
2021/03/30 13:08:11;;;;;;;19.10;16.57;;;;;;;;;;5075392;28;20219;-81
2021/03/30 13:10:36;;;;;;;19.20;16.47;;;;;;;;;;5075676;28;20171;-81
2021/03/30 13:13:01;;;;;;;18.27;15.73;;;;;;;;;;5076491;28;20164;-81
2021/03/30 13:15:27;;;;;;;19.07;16.27;;;;;;;;;;5058794;28;20202;-81
2021/03/30 13:17:52;;;;;;;17.87;14.93;;;;;;;;;;5056763;28;20184;-81
2021/03/30 13:20:18;;;;;;;17.37;15.57;;;;;;;;;;5056421;28;20521;-82
2021/03/30 13:22:45;;;;;;;17.53;15.73;;;;;;;;;;5056679;28;20271;-81
2021/03/30 13:25:12;;;;;;;18.27;16.37;;;;;;;;;;5056413;28;20172;-82
2021/03/30 13:27:37;;;;;;;17.77;15.77;;;;;;;;;;5056639;28;20222;-82
2021/03/30 13:30:03;;;;;;;18.53;16.37;;;;;;;;;;5056495;28;20590;-81
2021/03/30 13:32:28;;;;;;;21.67;16.83;;;;;;;;;;5056364;28;20662;-81
2021/03/30 13:34:54;;;;;;;20.13;16.00;;;;;;;;;;5056515;28;20168;-81
2021/03/30 13:37:19;;;;;;;19.03;16.97;;;;;;;;;;5056373;28;20199;-82
2021/03/30 13:39:44;;;;;;;19.73;16.23;;;;;;;;;;5056062;28;20221;-82
2021/03/30 13:42:11;;;;;;;22.53;16.73;;;;;;;;;;5056519;28;20234;-82
2021/03/30 13:44:36;;;;;;;20.47;16.40;;;;;;;;;;5053968;28;20706;-82
2021/03/30 13:47:02;;;;;;;18.27;15.87;;;;;;;;;;5055477;28;20206;-82
2021/03/30 13:49:29;;;;;;;20.03;16.03;;;;;;;;;;5055883;28;20689;-82
2021/03/30 13:51:56;;;;;;;17.27;15.40;;;;;;;;;;5055686;28;20600;-82
2021/03/30 13:54:21;;;;;;;17.37;15.27;;;;;;;;;;5054129;28;20178;-82
2021/03/30 13:56:47;;;;;;;20.63;16.67;;;;;;;;;;5052095;28;20172;-82
2021/03/30 13:59:13;;;;;;;17.90;16.00;;;;;;;;;;5056145;28;20207;-82
2021/03/30 14:01:38;;;;;;;17.27;15.47;;;;;;;;;;5055645;28;20566;-82
2021/03/30 14:04:04;;;;;;;18.07;16.17;;;;;;;;;;5056231;28;20174;-82
2021/03/30 14:06:30;;;;;;;17.20;15.33;;;;;;;;;;5055522;28;20254;-83
2021/03/30 14:08:55;;;;;;;19.47;16.63;;;;;;;;;;5054309;28;20204;-82
2021/03/30 14:11:23;;;;;;;17.07;15.37;;;;;;;;;;5055298;28;20172;-82
2021/03/30 14:13:56;;;;;;;16.83;15.13;;;;;;;;;;5055860;28;20172;-82
2021/03/30 14:16:31;;;;;;;18.17;16.20;;;;;;;;;;5055623;28;20203;-83
2021/03/30 14:19:00;;;;;;;19.67;16.50;;;;;;;;;;5055152;28;20594;-82
2021/03/30 14:24:03;;;;;;;21.27;17.13;;;;;;;;;;5055726;28;20176;-82
2021/03/30 14:26:29;;;;;;;18.37;16.37;;;;;;;;;;5039550;28;20180;-82